Time;durP1;ratioP1;P1;durP2;ratioP2;P2;SDS_P1;SDS_P2;PMS_P1;PMS_P2;Temp;Humidity;BMP_temperature;BMP_pressure;BME280_temperature;BME280_humidity;BME280_pressure;Samples;Min_cycle;Max_cycle;Signal;HPM_P1;HPM_P2
2022/04/13 00:01:43;;;;;;;14.30;7.43;;;16.40;1.00;;;;;;5053255;28;20173;-63
2022/04/13 00:04:09;;;;;;;11.63;6.70;;;16.30;99.90;;;;;;5052947;28;20188;-63
2022/04/13 00:06:38;;;;;;;13.97;6.50;;;16.30;1.00;;;;;;5052776;28;20177;-64
2022/04/13 00:09:09;;;;;;;13.20;7.23;;;16.20;99.90;;;;;;5052936;28;20178;-64
2022/04/13 00:11:36;;;;;;;14.77;7.27;;;16.30;99.90;;;;;;5053188;28;20227;-64
2022/04/13 00:14:02;;;;;;;14.37;7.40;;;16.20;99.90;;;;;;5053140;28;20215;-63
2022/04/13 00:16:28;;;;;;;16.07;8.00;;;16.20;99.90;;;;;;5053090;28;20168;-63
2022/04/13 00:18:54;;;;;;;20.93;8.53;;;16.20;99.90;;;;;;5052756;28;20209;-63
2022/04/13 00:21:20;;;;;;;16.73;7.90;;;16.10;1.00;;;;;;5052599;28;20219;-64
2022/04/13 00:23:46;;;;;;;15.40;8.30;;;16.10;1.00;;;;;;5053115;28;20263;-64
2022/04/13 00:26:11;;;;;;;15.37;8.57;;;16.10;1.00;;;;;;5052999;28;20268;-63
2022/04/13 00:28:37;;;;;;;13.73;8.13;;;16.00;1.00;;;;;;5052953;28;20197;-64
2022/04/13 00:31:03;;;;;;;16.47;9.03;;;15.90;99.90;;;;;;5052988;28;20204;-64
2022/04/13 00:33:28;;;;;;;15.00;8.47;;;15.70;99.90;;;;;;5053073;28;20173;-63
2022/04/13 00:35:55;;;;;;;14.97;8.70;;;15.80;99.90;;;;;;5052159;28;20227;-63
2022/04/13 00:38:22;;;;;;;14.23;9.13;;;15.70;99.90;;;;;;5052778;28;20231;-62
2022/04/13 00:40:48;;;;;;;16.47;9.23;;;15.80;99.90;;;;;;5052950;28;20230;-64
2022/04/13 00:43:14;;;;;;;14.87;9.13;;;15.80;99.90;;;;;;5052838;28;20193;-65
2022/04/13 00:45:48;;;;;;;15.13;8.73;;;15.80;99.90;;;;;;5052808;28;20181;-63
2022/04/13 00:48:34;;;;;;;18.50;9.37;;;15.90;99.90;;;;;;5052719;28;20222;-63
2022/04/13 00:50:59;;;;;;;22.40;9.20;;;15.90;65.10;;;;;;5053124;28;20177;-63
2022/04/13 00:53:26;;;;;;;20.77;9.30;;;15.80;99.90;;;;;;5056610;28;20177;-64
2022/04/13 00:55:56;;;;;;;15.17;9.93;;;15.80;99.90;;;;;;5056188;28;20575;-63
2022/04/13 00:58:24;;;;;;;15.73;8.90;;;15.80;99.90;;;;;;5056315;28;20258;-63
2022/04/13 01:00:51;;;;;;;18.17;9.43;;;15.70;99.90;;;;;;5056627;28;20304;-64
2022/04/13 01:03:23;;;;;;;21.70;9.63;;;15.70;99.90;;;;;;5056359;28;20188;-64
2022/04/13 01:05:49;;;;;;;18.50;9.50;;;15.70;99.90;;;;;;5055851;28;20227;-63
2022/04/13 01:08:17;;;;;;;17.53;9.63;;;15.60;99.90;;;;;;5056407;28;20165;-63
2022/04/13 01:10:44;;;;;;;14.47;9.67;;;15.60;1.00;;;;;;5056292;28;20205;-63
2022/04/13 01:13:10;;;;;;;20.90;9.73;;;15.60;1.00;;;;;;5056296;28;20256;-63
2022/04/13 01:15:36;;;;;;;17.17;10.80;;;15.50;1.00;;;;;;5056003;28;20527;-63
2022/04/13 01:18:03;;;;;;;17.17;10.57;;;15.50;1.00;;;;;;5056255;28;20216;-63
2022/04/13 01:20:29;;;;;;;17.73;9.87;;;15.40;1.00;;;;;;5055902;28;20260;-64
2022/04/13 01:22:54;;;;;;;17.30;10.57;;;15.40;1.00;;;;;;5056263;28;20196;-64
2022/04/13 01:25:20;;;;;;;16.97;10.20;;;15.50;1.00;;;;;;5055929;28;20173;-63
2022/04/13 01:27:46;;;;;;;16.10;10.30;;;15.40;1.00;;;;;;5056116;28;20177;-63
2022/04/13 01:30:12;;;;;;;19.40;10.63;;;15.30;1.00;;;;;;5056012;28;20256;-63
2022/04/13 01:32:38;;;;;;;22.17;10.57;;;15.30;1.00;;;;;;5055901;28;20177;-64
2022/04/13 01:35:04;;;;;;;16.37;10.37;;;15.40;1.00;;;;;;5055555;28;20269;-63
2022/04/13 01:37:30;;;;;;;13.03;9.23;;;15.40;1.00;;;;;;5055739;28;20205;-64
2022/04/13 01:39:56;;;;;;;22.43;10.10;;;15.30;1.00;;;;;;5055632;28;20524;-63
2022/04/13 01:42:22;;;;;;;17.33;9.60;;;15.50;1.00;;;;;;5055855;28;20184;-63
2022/04/13 01:44:48;;;;;;;21.07;9.67;;;15.50;1.00;;;;;;5055461;28;20201;-62
2022/04/13 01:47:14;;;;;;;16.10;9.70;;;15.40;1.00;;;;;;5055781;28;20579;-63
2022/04/13 01:49:40;;;;;;;19.17;9.37;;;15.50;1.00;;;;;;5055201;28;20188;-63
2022/04/13 01:52:07;;;;;;;13.47;8.83;;;15.50;1.00;;;;;;5055633;28;20173;-62
2022/04/13 01:54:33;;;;;;;17.37;9.67;;;15.50;1.00;;;;;;5055454;28;20184;-64
2022/04/13 01:56:59;;;;;;;17.67;9.67;;;15.50;1.00;;;;;;5055137;28;20216;-63
2022/04/13 01:59:25;;;;;;;18.30;9.17;;;15.50;1.00;;;;;;5055257;28;20687;-63
2022/04/13 02:01:51;;;;;;;17.27;9.73;;;15.50;1.00;;;;;;5055280;28;20175;-63
2022/04/13 02:04:24;;;;;;;20.93;10.47;;;15.40;1.00;;;;;;5054063;28;20264;-64
2022/04/13 02:06:50;;;;;;;22.83;10.83;;;15.50;1.00;;;;;;5055402;28;20231;-63
2022/04/13 02:09:18;;;;;;;18.77;10.83;;;15.40;1.00;;;;;;5055145;28;20173;-64
2022/04/13 02:11:45;;;;;;;23.13;11.40;;;15.30;1.00;;;;;;5055081;28;20292;-64
2022/04/13 02:14:11;;;;;;;20.37;11.17;;;15.20;1.00;;;;;;5055246;28;20181;-64
2022/04/13 02:16:37;;;;;;;17.33;10.30;;;15.10;1.00;;;;;;5054829;28;20260;-63
2022/04/13 02:19:03;;;;;;;18.30;11.53;;;15.00;1.00;;;;;;5054694;28;20668;-63
2022/04/13 02:21:30;;;;;;;21.20;11.00;;;14.80;1.00;;;;;;5055038;28;20257;-64
2022/04/13 02:23:56;;;;;;;19.80;11.17;;;14.70;1.00;;;;;;5054956;28;20204;-64
2022/04/13 02:26:22;;;;;;;19.80;10.60;;;14.70;1.00;;;;;;5054744;28;20185;-64
2022/04/13 02:28:49;;;;;;;19.03;10.97;;;14.60;1.00;;;;;;5054768;28;20223;-63
2022/04/13 02:31:15;;;;;;;19.47;10.43;;;14.60;1.00;;;;;;5054987;28;20173;-64
2022/04/13 02:33:40;;;;;;;19.53;10.87;;;14.80;1.00;;;;;;5054854;28;20655;-63
2022/04/13 02:36:06;;;;;;;19.63;11.47;;;14.80;1.00;;;;;;5054685;28;20169;-64
2022/04/13 02:38:32;;;;;;;15.47;9.50;;;14.80;1.00;;;;;;5054554;28;20204;-64
2022/04/13 02:40:58;;;;;;;17.93;10.87;;;14.80;1.00;;;;;;5054407;28;20230;-64
2022/04/13 02:43:30;;;;;;;17.07;10.30;;;14.90;1.00;;;;;;5054423;28;20193;-64
2022/04/13 02:45:59;;;;;;;16.67;10.37;;;14.80;1.00;;;;;;5054155;28;20169;-65
2022/04/13 02:48:24;;;;;;;19.03;11.00;;;14.80;1.00;;;;;;5054669;28;20177;-63
2022/04/13 02:50:50;;;;;;;14.57;9.63;;;14.90;1.00;;;;;;5054388;28;20192;-63
2022/04/13 02:53:16;;;;;;;20.00;11.83;;;14.90;1.00;;;;;;5054510;28;20662;-64
2022/04/13 02:55:42;;;;;;;18.43;10.17;;;14.90;1.00;;;;;;5053923;28;20635;-63
2022/04/13 02:58:08;;;;;;;20.80;10.67;;;14.70;1.00;;;;;;5054197;28;20216;-64
2022/04/13 03:00:34;;;;;;;20.43;11.40;;;14.70;1.00;;;;;;5053865;28;20170;-63
2022/04/13 03:02:59;;;;;;;17.07;9.57;;;14.80;1.00;;;;;;5054647;28;20628;-64
2022/04/13 03:05:25;;;;;;;14.80;9.47;;;14.80;1.00;;;;;;5054228;28;20215;-62
2022/04/13 03:07:51;;;;;;;20.43;10.23;;;14.90;1.00;;;;;;5054168;28;20169;-63
2022/04/13 03:10:16;;;;;;;14.83;10.23;;;15.00;1.00;;;;;;5053999;28;20161;-62
2022/04/13 03:12:42;;;;;;;19.57;10.40;;;15.00;1.00;;;;;;5053877;28;20200;-63
2022/04/13 03:15:09;;;;;;;21.50;9.80;;;15.10;1.00;;;;;;5053077;28;20168;-63
2022/04/13 03:17:35;;;;;;;17.80;10.27;;;15.10;1.00;;;;;;5053821;28;20209;-64
2022/04/13 03:20:01;;;;;;;16.83;10.13;;;15.10;1.00;;;;;;5053646;28;20654;-63
2022/04/13 03:22:27;;;;;;;14.00;9.80;;;15.20;1.00;;;;;;5053867;28;20177;-63
2022/04/13 03:24:53;;;;;;;16.27;10.60;;;15.30;1.00;;;;;;5053574;28;20312;-63
2022/04/13 03:27:19;;;;;;;16.17;10.30;;;15.40;1.00;;;;;;5053461;28;20263;-63
2022/04/13 03:29:45;;;;;;;18.33;10.33;;;15.50;1.00;;;;;;5053202;28;20177;-64
2022/04/13 03:32:11;;;;;;;16.70;9.47;;;15.50;1.00;;;;;;5053885;28;20169;-64
2022/04/13 03:34:36;;;;;;;16.87;9.13;;;15.40;1.00;;;;;;5053385;28;20181;-64
2022/04/13 03:37:02;;;;;;;15.63;9.33;;;15.50;1.00;;;;;;5053291;28;20203;-62
2022/04/13 03:39:28;;;;;;;18.70;9.90;;;15.60;1.00;;;;;;5053294;28;20283;-63
2022/04/13 03:41:54;;;;;;;15.87;10.20;;;15.60;1.00;;;;;;5053287;28;20199;-63
2022/04/13 03:44:20;;;;;;;18.03;10.47;;;15.70;1.00;;;;;;5052870;28;20727;-63
2022/04/13 03:46:46;;;;;;;21.13;10.33;;;15.60;1.00;;;;;;5053150;28;20179;-63
2022/04/13 03:49:11;;;;;;;20.70;10.30;;;15.70;1.00;;;;;;5053190;28;20220;-64
2022/04/13 03:51:37;;;;;;;22.27;10.93;;;15.70;1.00;;;;;;5053360;28;20177;-63
2022/04/13 03:54:03;;;;;;;21.23;10.17;;;15.80;1.00;;;;;;5052896;28;20651;-64
2022/04/13 03:56:29;;;;;;;23.50;10.03;;;15.80;1.00;;;;;;5052826;28;20278;-64
2022/04/13 03:58:57;;;;;;;17.90;10.43;;;15.60;1.00;;;;;;5052181;28;20223;-63
2022/04/13 04:01:23;;;;;;;17.07;10.27;;;15.60;1.00;;;;;;5053203;28;20201;-64
2022/04/13 04:03:48;;;;;;;19.10;10.40;;;15.60;1.00;;;;;;5053269;28;20176;-63
2022/04/13 04:06:14;;;;;;;18.40;10.27;;;15.70;1.00;;;;;;5053006;28;20181;-63
2022/04/13 04:08:39;;;;;;;17.73;10.77;;;15.70;1.00;;;;;;5052812;28;20228;-63
2022/04/13 04:11:05;;;;;;;19.37;10.40;;;15.60;1.00;;;;;;5052800;28;20738;-62
2022/04/13 04:13:31;;;;;;;16.27;10.80;;;15.70;1.00;;;;;;5052191;28;20173;-64
2022/04/13 04:15:57;;;;;;;22.43;11.43;;;15.70;1.00;;;;;;5052905;28;20223;-63
2022/04/13 04:18:23;;;;;;;20.00;10.73;;;15.70;1.00;;;;;;5052911;28;20371;-64
2022/04/13 04:20:48;;;;;;;23.93;10.40;;;15.70;1.00;;;;;;5052870;28;20303;-63
2022/04/13 04:23:14;;;;;;;23.57;11.23;;;15.80;1.00;;;;;;5052916;28;20173;-63
2022/04/13 04:25:40;;;;;;;21.57;10.70;;;15.70;1.00;;;;;;5053925;28;20172;-64
2022/04/13 04:28:09;;;;;;;17.10;9.80;;;15.70;1.00;;;;;;5058793;28;20195;-63
2022/04/13 04:30:35;;;;;;;18.23;9.43;;;15.70;1.00;;;;;;5059179;28;20177;-64
2022/04/13 04:33:01;;;;;;;20.10;10.17;;;15.60;1.00;;;;;;5059347;28;20632;-63
2022/04/13 04:35:27;;;;;;;21.90;11.00;;;15.60;1.00;;;;;;5059033;28;20177;-64
2022/04/13 04:37:52;;;;;;;31.70;10.83;;;15.40;1.00;;;;;;5058887;28;20940;-63
2022/04/13 04:40:18;;;;;;;18.70;9.80;;;15.30;1.00;;;;;;5059130;28;20686;-63
2022/04/13 04:42:49;;;;;;;19.83;10.77;;;15.20;1.00;;;;;;5058646;28;20575;-63
2022/04/13 04:45:18;;;;;;;18.73;10.23;;;15.10;1.00;;;;;;5059342;28;20176;-63
2022/04/13 04:47:43;;;;;;;18.73;9.87;;;15.10;1.00;;;;;;5059029;28;20169;-64
2022/04/13 04:50:10;;;;;;;17.87;10.23;;;15.00;1.00;;;;;;5058848;28;20223;-63
2022/04/13 04:52:41;;;;;;;19.77;10.17;;;14.90;1.00;;;;;;5059069;28;20201;-63
2022/04/13 04:55:08;;;;;;;15.70;9.67;;;14.90;1.00;;;;;;5058718;28;20181;-63
2022/04/13 04:57:33;;;;;;;18.00;9.97;;;14.90;1.00;;;;;;5058260;28;20209;-63
2022/04/13 04:59:59;;;;;;;19.10;10.27;;;14.90;1.00;;;;;;5058542;28;20267;-64
2022/04/13 05:02:25;;;;;;;17.47;9.67;;;14.90;1.00;;;;;;5059137;28;20201;-63
2022/04/13 05:04:51;;;;;;;25.03;10.27;;;15.00;1.00;;;;;;5059082;28;20205;-63
2022/04/13 05:07:16;;;;;;;16.87;9.70;;;15.00;1.00;;;;;;5058847;28;20184;-63
2022/04/13 05:09:42;;;;;;;18.33;10.00;;;15.00;1.00;;;;;;5058319;28;20180;-63
2022/04/13 05:12:08;;;;;;;18.97;9.93;;;15.10;1.00;;;;;;5058234;28;20169;-63
2022/04/13 05:14:34;;;;;;;16.23;9.93;;;15.20;1.00;;;;;;5058648;28;20188;-63
2022/04/13 05:17:00;;;;;;;16.80;9.13;;;15.20;1.00;;;;;;5058685;28;20177;-63
2022/04/13 05:19:25;;;;;;;16.50;10.13;;;15.30;1.00;;;;;;5058429;28;20671;-63
2022/04/13 05:21:51;;;;;;;17.33;10.13;;;15.40;1.00;;;;;;5058685;28;20251;-64
2022/04/13 05:24:17;;;;;;;17.57;10.07;;;15.40;1.00;;;;;;5058568;28;20180;-64
2022/04/13 05:26:42;;;;;;;19.97;10.33;;;15.50;1.00;;;;;;5058455;28;20197;-64
2022/04/13 05:29:08;;;;;;;20.17;9.63;;;15.50;1.00;;;;;;5058573;28;20188;-65
2022/04/13 05:31:34;;;;;;;15.37;9.63;;;15.50;1.00;;;;;;5058232;28;20266;-64
2022/04/13 05:33:59;;;;;;;17.37;9.13;;;15.40;1.00;;;;;;5058446;28;20514;-64
2022/04/13 05:36:25;;;;;;;17.10;8.70;;;15.40;1.00;;;;;;5058836;28;20636;-63
2022/04/13 05:38:51;;;;;;;15.10;9.17;;;15.40;1.00;;;;;;5055324;28;20223;-63
2022/04/13 05:41:16;;;;;;;19.23;9.83;;;15.40;1.00;;;;;;5054614;28;20525;-64
2022/04/13 05:43:42;;;;;;;15.90;9.00;;;15.60;1.00;;;;;;5055247;28;20620;-64
2022/04/13 05:46:07;;;;;;;17.40;9.50;;;15.60;1.00;;;;;;5055091;28;20165;-62
2022/04/13 05:48:33;;;;;;;18.87;9.63;;;15.70;1.00;;;;;;5054968;28;20636;-64
2022/04/13 05:50:59;;;;;;;14.37;8.83;;;15.70;1.00;;;;;;5054146;28;20169;-65
2022/04/13 05:53:25;;;;;;;20.93;9.07;;;15.70;1.00;;;;;;5055262;28;20213;-64
2022/04/13 05:55:57;;;;;;;15.87;9.10;;;15.70;1.00;;;;;;5054050;28;20661;-62
2022/04/13 05:58:26;;;;;;;19.73;9.87;;;15.70;1.00;;;;;;5054470;28;20213;-64
2022/04/13 06:00:53;;;;;;;18.83;9.27;;;15.90;1.00;;;;;;5054010;28;20191;-63
2022/04/13 06:03:20;;;;;;;16.50;9.37;;;16.00;1.00;;;;;;5054581;28;20701;-63
2022/04/13 06:05:46;;;;;;;16.60;9.00;;;16.00;1.00;;;;;;5054410;28;20181;-64
2022/04/13 06:08:13;;;;;;;16.87;9.80;;;16.10;1.00;;;;;;5054347;28;20198;-65
2022/04/13 06:10:38;;;;;;;16.70;10.07;;;16.20;1.00;;;;;;5054009;28;20264;-64
2022/04/13 06:13:04;;;;;;;15.40;9.00;;;16.30;1.00;;;;;;5054886;28;20275;-63
2022/04/13 06:15:31;;;;;;;20.20;9.43;;;16.20;1.00;;;;;;5054276;28;20326;-64
2022/04/13 06:17:57;;;;;;;24.67;10.47;;;16.20;1.00;;;;;;5054111;28;20303;-64
2022/04/13 06:20:23;;;;;;;20.23;10.13;;;16.30;1.00;;;;;;5054346;28;20652;-64
2022/04/13 06:22:49;;;;;;;19.43;9.20;;;16.30;1.00;;;;;;5054656;28;20181;-64
2022/04/13 06:25:15;;;;;;;21.77;12.33;;;16.40;1.00;;;;;;5053426;28;20666;-64
2022/04/13 06:27:41;;;;;;;19.77;9.57;;;16.50;1.00;;;;;;5053779;28;20648;-65
2022/04/13 06:30:08;;;;;;;27.17;9.63;;;16.50;1.00;;;;;;5053850;28;20188;-64
2022/04/13 06:32:35;;;;;;;16.80;9.00;;;16.60;1.00;;;;;;5053657;28;20185;-64
2022/04/13 06:35:02;;;;;;;21.13;10.13;;;16.40;1.00;;;;;;5053860;28;20694;-62
2022/04/13 06:37:27;;;;;;;20.47;8.97;;;16.50;1.00;;;;;;5053509;28;20271;-63
2022/04/13 06:39:53;;;;;;;21.97;9.23;;;16.50;1.00;;;;;;5053648;28;20264;-64
2022/04/13 06:42:22;;;;;;;17.97;9.50;;;16.60;1.00;;;;;;5054322;28;20171;-64
2022/04/13 06:44:48;;;;;;;24.73;9.50;;;16.70;1.00;;;;;;5053675;28;20205;-64
2022/04/13 06:47:14;;;;;;;12.70;7.93;;;16.80;1.00;;;;;;5053633;28;20173;-64
2022/04/13 06:49:40;;;;;;;16.87;9.27;;;16.60;1.00;;;;;;5053135;28;20590;-64
2022/04/13 06:52:06;;;;;;;15.00;9.03;;;16.50;1.00;;;;;;5053878;28;20170;-63
2022/04/13 06:54:31;;;;;;;20.03;9.07;;;16.50;1.00;;;;;;5053348;28;20664;-63
2022/04/13 06:56:57;;;;;;;15.30;9.17;;;16.60;1.00;;;;;;5053120;28;20224;-64
2022/04/13 06:59:22;;;;;;;25.20;10.13;;;16.50;1.00;;;;;;5052919;28;20219;-65
2022/04/13 07:01:48;;;;;;;14.77;8.60;;;16.40;1.00;;;;;;5053951;28;20647;-64
2022/04/13 07:04:14;;;;;;;21.30;9.83;;;16.30;1.00;;;;;;5052889;28;20181;-65
2022/04/13 07:06:39;;;;;;;21.37;9.53;;;16.50;1.00;;;;;;5053383;28;20170;-65
2022/04/13 07:09:05;;;;;;;15.73;9.00;;;16.50;1.00;;;;;;5053046;28;20199;-64
2022/04/13 07:11:30;;;;;;;96.20;18.63;;;16.50;1.00;;;;;;5052997;28;20219;-64
2022/04/13 07:13:56;;;;;;;20.40;9.87;;;16.30;1.00;;;;;;5052916;28;20184;-64
2022/04/13 07:16:22;;;;;;;17.60;10.10;;;16.20;1.00;;;;;;5053434;28;20717;-64
2022/04/13 07:18:48;;;;;;;17.57;9.63;;;16.30;1.00;;;;;;5052839;28;20247;-63
2022/04/13 07:21:13;;;;;;;17.20;9.43;;;16.40;1.00;;;;;;5053585;28;20195;-68
2022/04/13 07:23:39;;;;;;;11.50;8.73;;;16.30;1.00;;;;;;5053176;28;20181;-65
2022/04/13 07:26:04;;;;;;;13.10;9.20;;;16.30;1.00;;;;;;5053297;28;20632;-64
2022/04/13 07:28:30;;;;;;;14.93;9.20;;;16.20;1.00;;;;;;5052984;28;20177;-65
2022/04/13 07:30:55;;;;;;;16.17;9.23;;;16.20;1.00;;;;;;5051620;28;20169;-63
2022/04/13 07:33:21;;;;;;;20.10;9.37;;;16.30;1.00;;;;;;5053177;28;20264;-65
2022/04/13 07:35:47;;;;;;;17.20;9.57;;;16.30;1.00;;;;;;5053077;28;20173;-65
2022/04/13 07:38:13;;;;;;;18.50;9.60;;;16.20;1.00;;;;;;5052821;28;20729;-65
2022/04/13 07:40:38;;;;;;;13.50;8.80;;;16.20;1.00;;;;;;5052759;28;20165;-65
2022/04/13 07:43:06;;;;;;;17.20;9.37;;;16.20;1.00;;;;;;5051623;28;20676;-64
2022/04/13 07:45:31;;;;;;;20.90;9.53;;;16.40;1.00;;;;;;5052543;28;20180;-64
2022/04/13 07:47:57;;;;;;;21.30;9.97;;;16.50;1.00;;;;;;5052832;28;20180;-66
2022/04/13 07:50:23;;;;;;;13.63;9.00;;;16.50;1.00;;;;;;5062067;28;20632;-63
2022/04/13 07:52:49;;;;;;;18.20;9.60;;;16.40;1.00;;;;;;5052373;28;20181;-64
2022/04/13 07:55:15;;;;;;;18.00;10.03;;;16.50;1.00;;;;;;5051830;28;20196;-63
2022/04/13 07:57:41;;;;;;;20.30;10.03;;;16.50;1.00;;;;;;5051858;28;20244;-62
2022/04/13 08:00:12;;;;;;;19.20;10.37;;;16.50;1.00;;;;;;5052138;28;20239;-61
2022/04/13 08:02:39;;;;;;;23.60;10.60;;;16.60;1.00;;;;;;5051639;28;20229;-63
2022/04/13 08:05:05;;;;;;;18.37;10.40;;;16.70;1.00;;;;;;5051103;28;20648;-63
2022/04/13 08:07:31;;;;;;;19.07;10.17;;;16.70;1.00;;;;;;5052024;28;20256;-65
2022/04/13 08:09:56;;;;;;;18.80;10.47;;;16.80;1.00;;;;;;5052477;28;20173;-63
2022/04/13 08:12:22;;;;;;;18.03;9.50;;;16.70;1.00;;;;;;5052411;28;20567;-64
2022/04/13 08:14:48;;;;;;;13.30;10.00;;;16.70;1.00;;;;;;5050682;28;20188;-62
2022/04/13 08:17:14;;;;;;;19.27;10.70;;;16.70;1.00;;;;;;5068647;28;20168;-63
2022/04/13 08:19:39;;;;;;;18.63;10.70;;;16.70;1.00;;;;;;5071584;28;20206;-62
2022/04/13 08:22:05;;;;;;;19.67;11.17;;;16.50;1.00;;;;;;5072150;28;20173;-63
2022/04/13 08:24:31;;;;;;;17.80;11.47;;;16.40;1.00;;;;;;5072566;28;20637;-63
2022/04/13 08:26:59;;;;;;;19.53;11.03;;;16.40;1.00;;;;;;5071892;28;20207;-66
2022/04/13 08:29:25;;;;;;;19.93;12.17;;;16.40;1.00;;;;;;5071890;28;20177;-64
2022/04/13 08:31:50;;;;;;;22.47;11.90;;;16.40;1.00;;;;;;5072616;28;20188;-62
2022/04/13 08:34:16;;;;;;;18.43;12.00;;;16.30;1.00;;;;;;5071383;28;20176;-63
2022/04/13 08:36:41;;;;;;;20.67;12.07;;;16.10;1.00;;;;;;5072114;28;20290;-63
2022/04/13 08:39:13;;;;;;;20.10;12.07;;;16.10;1.00;;;;;;5070684;28;20205;-64
2022/04/13 08:41:50;;;;;;;16.30;11.07;;;16.10;1.00;;;;;;5056852;28;20200;-63
2022/04/13 08:44:48;;;;;;;15.97;11.23;;;16.10;1.00;;;;;;5070525;28;20196;-63
2022/04/13 08:47:20;;;;;;;15.03;11.20;;;16.20;1.00;;;;;;5071787;28;20176;-63
2022/04/13 08:49:49;;;;;;;15.37;11.67;;;16.30;1.00;;;;;;5071312;28;20624;-63
2022/04/13 08:52:18;;;;;;;19.07;12.20;;;16.50;1.00;;;;;;5072363;28;20187;-63
2022/04/13 08:55:25;;;;;;;18.43;11.90;;;16.50;1.00;;;;;;5071675;28;20192;-62
2022/04/13 08:58:04;;;;;;;20.67;11.20;;;16.40;1.00;;;;;;5028945;28;20218;-64
2022/04/13 09:00:33;;;;;;;17.87;11.53;;;16.60;1.00;;;;;;5029764;28;20190;-62
2022/04/13 09:03:17;;;;;;;17.43;11.77;;;16.90;1.00;;;;;;5029229;28;20212;-63
2022/04/13 09:05:45;;;;;;;15.13;11.10;;;16.80;1.00;;;;;;5030193;28;20679;-63
2022/04/13 09:08:34;;;;;;;13.37;11.20;;;16.80;1.00;;;;;;5029486;28;20515;-63
2022/04/13 09:11:01;;;;;;;18.97;11.93;;;16.60;1.00;;;;;;5028964;28;20178;-64
2022/04/13 09:13:30;;;;;;;19.57;11.53;;;16.60;1.00;;;;;;5033275;28;20185;-65
2022/04/13 09:15:58;;;;;;;18.03;11.77;;;16.60;1.00;;;;;;5044737;28;20695;-63
2022/04/13 09:18:24;;;;;;;20.33;11.47;;;16.60;1.00;;;;;;5052606;28;20580;-63
2022/04/13 09:20:50;;;;;;;14.83;11.47;;;16.70;1.00;;;;;;5053188;28;20702;-64
2022/04/13 09:23:16;;;;;;;21.83;11.67;;;16.50;1.00;;;;;;5053204;28;20170;-63
2022/04/13 09:25:43;;;;;;;16.33;11.10;;;16.30;1.00;;;;;;5052527;28;20291;-64
2022/04/13 09:28:08;;;;;;;18.13;12.37;;;16.10;1.00;;;;;;5053263;28;20176;-64
2022/04/13 09:30:34;;;;;;;17.63;12.00;;;16.20;1.00;;;;;;5053063;28;20173;-64
2022/04/13 09:33:03;;;;;;;15.03;10.70;;;16.10;1.00;;;;;;5074530;28;20638;-63
2022/04/13 09:35:33;;;;;;;17.67;12.10;;;16.20;1.00;;;;;;5074443;28;20179;-64
2022/04/13 09:38:07;;;;;;;20.87;11.37;;;16.30;1.00;;;;;;5075408;28;20238;-64
2022/04/13 09:40:40;;;;;;;18.20;11.87;;;16.40;1.00;;;;;;5074884;28;20173;-65
2022/04/13 09:43:07;;;;;;;16.97;12.03;;;16.50;1.00;;;;;;5074709;28;20196;-64
2022/04/13 09:45:35;;;;;;;17.30;11.60;;;16.40;1.00;;;;;;5075114;28;20662;-65
2022/04/13 09:48:05;;;;;;;15.87;11.90;;;16.20;1.00;;;;;;5072631;28;20204;-63
2022/04/13 09:50:30;;;;;;;20.27;12.43;;;16.10;1.00;;;;;;5074850;28;20181;-64
2022/04/13 09:52:57;;;;;;;16.60;12.00;;;16.20;1.00;;;;;;5075115;28;20532;-63
2022/04/13 09:55:25;;;;;;;21.73;13.03;;;16.40;1.00;;;;;;5074039;28;20179;-64
2022/04/13 09:58:02;;;;;;;22.80;13.07;;;16.70;1.00;;;;;;5073028;28;20573;-62
2022/04/13 10:00:28;;;;;;;18.47;12.43;;;16.80;1.00;;;;;;5074767;28;20234;-63
2022/04/13 10:02:53;;;;;;;20.90;12.70;;;16.80;1.00;;;;;;5074243;28;20226;-63
2022/04/13 10:05:21;;;;;;;17.83;12.43;;;16.80;1.00;;;;;;5074299;28;20268;-64
2022/04/13 10:08:08;;;;;;;17.50;12.30;;;16.50;1.00;;;;;;5074753;28;20237;-65
2022/04/13 10:10:34;;;;;;;20.93;14.40;;;16.60;1.00;;;;;;5074333;28;20187;-64
2022/04/13 10:13:00;;;;;;;23.73;16.10;;;16.50;1.00;;;;;;5073979;28;20165;-63
2022/04/13 10:15:26;;;;;;;21.70;15.73;;;16.40;1.00;;;;;;5074263;28;20165;-65
2022/04/13 10:17:59;;;;;;;22.00;15.07;;;16.40;1.00;;;;;;5074385;28;20518;-64
2022/04/13 10:20:45;;;;;;;18.73;14.83;;;16.50;1.00;;;;;;5073190;28;20271;-64
2022/04/13 10:23:11;;;;;;;23.57;17.97;;;16.60;2.00;;;;;;5073908;28;20164;-64
2022/04/13 10:25:37;;;;;;;18.37;14.10;;;16.60;1.00;;;;;;5072707;28;20199;-64
2022/04/13 10:28:03;;;;;;;19.10;16.30;;;16.60;1.00;;;;;;5074168;28;20161;-64
2022/04/13 10:30:41;;;;;;;20.90;14.20;;;16.40;1.00;;;;;;5073267;28;20212;-65
2022/04/13 10:33:09;;;;;;;18.80;13.40;;;16.20;5.60;;;;;;5072810;28;20255;-63
2022/04/13 10:35:40;;;;;;;17.50;12.63;;;15.90;22.20;;;;;;5074349;28;20185;-65
2022/04/13 10:38:06;;;;;;;21.13;14.57;;;15.80;27.10;;;;;;5073685;28;20315;-64
2022/04/13 10:40:42;;;;;;;21.17;14.47;;;15.90;34.60;;;;;;5074135;28;20363;-63
2022/04/13 10:43:13;;;;;;;16.90;14.50;;;15.90;42.20;;;;;;5074043;28;20250;-63
2022/04/13 10:45:40;;;;;;;21.67;14.40;;;15.80;45.10;;;;;;5073587;28;20263;-63
2022/04/13 10:48:07;;;;;;;16.70;12.77;;;15.90;41.90;;;;;;5073511;28;20200;-63
2022/04/13 10:50:33;;;;;;;19.03;14.00;;;16.00;34.20;;;;;;5073795;28;20220;-63
2022/04/13 10:53:17;;;;;;;22.17;16.07;;;16.20;32.30;;;;;;5073441;28;20179;-64
2022/04/13 10:55:50;;;;;;;15.97;14.20;;;16.00;38.00;;;;;;5073445;28;20228;-64
2022/04/13 10:58:35;;;;;;;17.23;13.73;;;16.10;45.50;;;;;;5073334;28;20235;-64
2022/04/13 11:01:06;;;;;;;19.20;13.67;;;15.90;38.80;;;;;;5073045;28;20169;-64
2022/04/13 11:03:35;;;;;;;15.77;12.80;;;16.00;42.80;;;;;;5074191;28;20172;-64
2022/04/13 11:06:06;;;;;;;17.27;14.07;;;15.90;47.50;;;;;;5073790;28;20168;-63
2022/04/13 11:08:37;;;;;;;16.77;14.87;;;15.80;45.30;;;;;;5073512;28;20184;-63
2022/04/13 11:11:04;;;;;;;20.87;15.50;;;15.80;59.70;;;;;;5073499;28;20654;-65
2022/04/13 11:13:33;;;;;;;18.67;13.67;;;16.00;67.40;;;;;;5073103;28;20172;-64
2022/04/13 11:16:25;;;;;;;16.33;13.73;;;16.10;56.90;;;;;;5073465;28;20236;-64
2022/04/13 11:19:06;;;;;;;18.43;14.23;;;16.10;44.90;;;;;;5073407;28;20236;-64
2022/04/13 11:21:54;;;;;;;19.70;14.73;;;16.30;44.20;;;;;;5073395;28;20181;-64
2022/04/13 11:24:41;;;;;;;20.07;14.90;;;16.20;44.20;;;;;;5073321;28;20180;-64
2022/04/13 11:27:09;;;;;;;18.90;14.33;;;16.60;39.30;;;;;;5072668;28;20196;-64
2022/04/13 11:29:36;;;;;;;18.43;15.27;;;16.60;30.00;;;;;;5072658;28;20226;-64
2022/04/13 11:32:01;;;;;;;15.07;13.50;;;16.70;36.10;;;;;;5073237;28;20168;-64
2022/04/13 11:34:28;;;;;;;19.80;13.43;;;16.80;26.40;;;;;;5073054;28;20180;-64
2022/04/13 11:37:02;;;;;;;19.13;14.03;;;16.90;8.80;;;;;;5073163;28;20180;-65
2022/04/13 11:39:51;;;;;;;15.07;12.17;;;17.00;1.00;;;;;;5073173;28;20262;-64
2022/04/13 11:42:38;;;;;;;18.37;13.83;;;16.90;1.00;;;;;;5072898;28;20184;-62
2022/04/13 11:45:12;;;;;;;15.17;12.10;;;17.20;1.00;;;;;;5073345;28;20225;-65
2022/04/13 11:47:51;;;;;;;13.80;12.30;;;17.40;1.00;;;;;;5072119;28;20160;-64
2022/04/13 11:50:17;;;;;;;13.83;11.67;;;17.40;1.00;;;;;;5072787;28;20175;-64
2022/04/13 11:52:48;;;;;;;17.27;12.53;;;17.30;1.00;;;;;;5073145;28;20181;-64
2022/04/13 11:55:19;;;;;;;16.30;12.23;;;17.30;1.00;;;;;;5072679;28;20175;-65
2022/04/13 11:58:09;;;;;;;12.60;11.30;;;17.40;1.00;;;;;;5071576;28;20253;-64
2022/04/13 12:00:42;;;;;;;15.80;11.63;;;17.40;1.00;;;;;;5072910;28;20363;-64
2022/04/13 12:03:17;;;;;;;14.27;10.63;;;17.00;1.00;;;;;;5072507;28;20180;-64
2022/04/13 12:05:49;;;;;;;13.53;10.83;;;16.90;1.00;;;;;;5072479;28;20225;-64
2022/04/13 12:08:24;;;;;;;16.73;10.90;;;16.70;1.00;;;;;;5073025;28;20169;-64
2022/04/13 12:11:01;;;;;;;15.80;11.60;;;16.60;1.00;;;;;;5072393;28;20218;-64
2022/04/13 12:13:33;;;;;;;13.10;11.30;;;16.70;1.00;;;;;;5071834;28;20211;-64
2022/04/13 12:16:01;;;;;;;16.10;13.13;;;16.60;1.00;;;;;;5072428;28;20202;-63
2022/04/13 12:18:27;;;;;;;12.37;11.17;;;16.60;1.00;;;;;;5072640;28;20200;-64
2022/04/13 12:21:05;;;;;;;16.27;12.57;;;16.60;1.00;;;;;;5072209;28;20175;-64
2022/04/13 12:23:37;;;;;;;16.83;13.13;;;16.70;1.00;;;;;;5072397;28;20173;-64
2022/04/13 12:26:03;;;;;;;16.20;13.07;;;16.50;4.90;;;;;;5072176;28;20165;-64
2022/04/13 12:28:29;;;;;;;19.40;13.90;;;16.50;15.50;;;;;;5071984;28;20176;-65
2022/04/13 12:31:04;;;;;;;16.50;12.63;;;16.50;20.10;;;;;;5072172;28;20261;-63
2022/04/13 12:33:31;;;;;;;18.73;13.97;;;16.30;20.00;;;;;;5072341;28;20255;-65
2022/04/13 12:36:00;;;;;;;19.73;14.80;;;16.20;29.90;;;;;;5072758;28;20183;-64
2022/04/13 12:38:28;;;;;;;18.77;14.93;;;16.20;34.50;;;;;;5072529;28;20204;-64
2022/04/13 12:41:15;;;;;;;21.23;15.80;;;16.40;43.10;;;;;;5071359;28;20218;-65
2022/04/13 12:43:49;;;;;;;24.20;16.20;;;16.60;32.10;;;;;;5072328;28;20192;-65